Time;durP1;ratioP1;P1;durP2;ratioP2;P2;SDS_P1;SDS_P2;PMS_P1;PMS_P2;Temp;Humidity;BMP_temperature;BMP_pressure;BME280_temperature;BME280_humidity;BME280_pressure;Samples;Min_cycle;Max_cycle;Signal;HPM_P1;HPM_P2
2021/07/10 00:01:58;;;;;;;2.80;2.70;;;;;;;;;;5090580;28;24401;-53
2021/07/10 00:04:24;;;;;;;3.27;3.07;;;;;;;;;;5100941;28;24433;-54
2021/07/10 00:06:49;;;;;;;3.40;3.10;;;;;;;;;;5096766;28;24425;-54
2021/07/10 00:09:14;;;;;;;3.10;2.90;;;;;;;;;;5104539;28;24580;-54
2021/07/10 00:11:39;;;;;;;3.10;2.90;;;;;;;;;;5089296;28;25159;-54
2021/07/10 00:14:05;;;;;;;3.40;3.20;;;;;;;;;;5092215;28;24944;-54
2021/07/10 00:16:30;;;;;;;3.47;3.20;;;;;;;;;;5098915;28;24438;-54
2021/07/10 00:18:55;;;;;;;3.80;3.50;;;;;;;;;;5094699;28;24416;-54
2021/07/10 00:21:20;;;;;;;3.70;3.40;;;;;;;;;;5100808;28;24446;-54
2021/07/10 00:23:45;;;;;;;2.58;2.47;;;;;;;;;;5087069;28;24422;-54
2021/07/10 00:26:10;;;;;;;2.90;2.70;;;;;;;;;;5093884;28;24495;-54
2021/07/10 00:28:36;;;;;;;2.80;2.60;;;;;;;;;;5090603;28;24501;-54
2021/07/10 00:31:01;;;;;;;3.60;3.30;;;;;;;;;;5091629;28;24411;-54
2021/07/10 00:33:26;;;;;;;3.00;2.80;;;;;;;;;;5090164;28;24494;-54
2021/07/10 00:35:51;;;;;;;3.10;2.80;;;;;;;;;;5101680;28;24425;-54
2021/07/10 00:38:16;;;;;;;2.47;2.37;;;;;;;;;;5097192;28;24847;-54
2021/07/10 00:40:41;;;;;;;3.42;3.13;;;;;;;;;;5106577;28;24425;-54
2021/07/10 00:43:07;;;;;;;3.03;2.77;;;;;;;;;;5082000;28;24422;-54
2021/07/10 00:45:32;;;;;;;2.90;2.70;;;;;;;;;;5083940;28;24829;-54
2021/07/10 00:47:57;;;;;;;3.20;3.00;;;;;;;;;;5098140;28;24417;-55
2021/07/10 00:50:23;;;;;;;3.40;3.10;;;;;;;;;;5093684;28;24781;-54
2021/07/10 00:52:48;;;;;;;3.40;3.20;;;;;;;;;;5087021;28;24440;-55
2021/07/10 00:55:13;;;;;;;3.50;3.20;;;;;;;;;;5091151;28;24444;-54
2021/07/10 00:57:40;;;;;;;3.50;3.20;;;;;;;;;;5093656;28;24406;-54
2021/07/10 01:00:09;;;;;;;2.80;2.70;;;;;;;;;;5094889;28;24795;-54
2021/07/10 01:02:35;;;;;;;2.90;2.70;;;;;;;;;;5079825;28;24506;-54
2021/07/10 01:05:01;;;;;;;3.37;3.07;;;;;;;;;;5076500;28;24476;-54
2021/07/10 01:07:26;;;;;;;3.67;3.37;;;;;;;;;;5104252;28;24470;-54
2021/07/10 01:09:52;;;;;;;3.10;2.90;;;;;;;;;;5073285;28;24842;-55
2021/07/10 01:12:17;;;;;;;2.97;2.78;;;;;;;;;;5080726;28;24974;-54
2021/07/10 01:14:43;;;;;;;2.80;2.70;;;;;;;;;;5097585;28;24416;-54
2021/07/10 01:17:08;;;;;;;2.97;2.78;;;;;;;;;;5100728;28;24457;-54
2021/07/10 01:19:33;;;;;;;2.90;2.70;;;;;;;;;;5110255;27;24419;-55
2021/07/10 01:21:58;;;;;;;3.63;3.40;;;;;;;;;;5080595;28;24425;-54
2021/07/10 01:24:24;;;;;;;3.73;3.43;;;;;;;;;;5111643;28;24441;-54
2021/07/10 01:26:50;;;;;;;3.22;3.03;;;;;;;;;;5100353;28;24517;-54
2021/07/10 01:29:15;;;;;;;3.60;3.30;;;;;;;;;;5098732;28;24437;-55
2021/07/10 01:31:40;;;;;;;3.50;3.30;;;;;;;;;;5098628;28;24451;-55
2021/07/10 01:34:05;;;;;;;4.17;3.87;;;;;;;;;;5086728;28;24464;-54
2021/07/10 01:36:31;;;;;;;3.60;3.40;;;;;;;;;;5095421;28;25004;-55
2021/07/10 01:38:56;;;;;;;3.77;3.57;;;;;;;;;;5087141;28;24468;-55
2021/07/10 01:41:21;;;;;;;4.00;3.60;;;;;;;;;;5100777;28;25163;-55
2021/07/10 01:43:46;;;;;;;4.68;4.38;;;;;;;;;;5101644;28;24409;-55
2021/07/10 01:46:11;;;;;;;4.10;3.80;;;;;;;;;;5095046;28;25327;-54
2021/07/10 01:48:36;;;;;;;3.83;3.55;;;;;;;;;;5099213;28;24514;-54
2021/07/10 01:51:02;;;;;;;4.20;3.90;;;;;;;;;;5092765;28;24418;-55
2021/07/10 01:53:27;;;;;;;4.07;3.77;;;;;;;;;;5101005;28;24448;-55
2021/07/10 01:55:52;;;;;;;3.97;3.77;;;;;;;;;;5093297;28;24451;-55
2021/07/10 01:58:17;;;;;;;4.50;4.10;;;;;;;;;;5096864;28;24493;-55
2021/07/10 02:00:44;;;;;;;4.33;3.93;;;;;;;;;;5093882;28;25178;-55
2021/07/10 02:03:09;;;;;;;4.80;4.40;;;;;;;;;;5093483;28;24494;-55
2021/07/10 02:05:34;;;;;;;5.10;4.70;;;;;;;;;;5093487;28;24526;-55
2021/07/10 02:08:00;;;;;;;5.00;4.70;;;;;;;;;;5081438;28;24501;-55
2021/07/10 02:10:30;;;;;;;5.30;4.70;;;;;;;;;;5103794;28;24462;-54
2021/07/10 02:12:57;;;;;;;5.53;5.03;;;;;;;;;;5093422;28;24413;-55
2021/07/10 02:15:23;;;;;;;5.00;4.60;;;;;;;;;;5089728;28;24419;-53
2021/07/10 02:17:48;;;;;;;5.53;4.93;;;;;;;;;;5090367;28;24479;-54
2021/07/10 02:20:15;;;;;;;4.90;4.50;;;;;;;;;;5094271;27;24517;-54
2021/07/10 02:22:41;;;;;;;5.55;5.05;;;;;;;;;;5082488;28;24517;-55
2021/07/10 02:25:07;;;;;;;5.10;4.70;;;;;;;;;;5093971;28;24504;-54
2021/07/10 02:27:32;;;;;;;4.43;4.15;;;;;;;;;;5102107;28;24432;-54
2021/07/10 02:29:57;;;;;;;4.13;3.92;;;;;;;;;;5080849;28;25348;-55
2021/07/10 02:32:22;;;;;;;4.60;4.20;;;;;;;;;;5107875;28;24409;-55
2021/07/10 02:34:47;;;;;;;4.90;4.50;;;;;;;;;;5094942;28;24459;-54
2021/07/10 02:37:13;;;;;;;4.95;4.65;;;;;;;;;;5096944;28;24991;-54
2021/07/10 02:39:38;;;;;;;4.70;4.40;;;;;;;;;;5093689;28;24409;-54
2021/07/10 02:42:03;;;;;;;6.97;5.00;;;;;;;;;;5107792;28;24645;-54
2021/07/10 02:44:28;;;;;;;4.90;4.60;;;;;;;;;;5094453;28;24514;-54
2021/07/10 02:46:55;;;;;;;5.13;4.72;;;;;;;;;;5102638;28;24784;-54
2021/07/10 02:49:20;;;;;;;4.45;4.15;;;;;;;;;;5080368;28;24549;-54
2021/07/10 02:51:45;;;;;;;4.63;4.33;;;;;;;;;;5077883;28;24532;-55
2021/07/10 02:54:10;;;;;;;4.00;3.70;;;;;;;;;;5090715;28;24764;-54
2021/07/10 02:56:35;;;;;;;4.10;3.90;;;;;;;;;;5093178;28;24769;-54
2021/07/10 02:59:01;;;;;;;4.35;4.05;;;;;;;;;;5099111;28;24445;-54
2021/07/10 03:01:26;;;;;;;4.10;3.80;;;;;;;;;;5091548;28;24422;-54
2021/07/10 03:03:51;;;;;;;4.30;4.00;;;;;;;;;;5098046;28;25014;-54
2021/07/10 03:06:16;;;;;;;4.20;3.90;;;;;;;;;;5092402;28;24409;-54
2021/07/10 03:08:42;;;;;;;4.37;4.07;;;;;;;;;;5109114;28;24430;-54
2021/07/10 03:11:08;;;;;;;4.47;4.10;;;;;;;;;;5096950;28;24846;-54
2021/07/10 03:13:33;;;;;;;3.80;3.60;;;;;;;;;;5081147;28;24417;-55
2021/07/10 03:15:58;;;;;;;4.53;4.22;;;;;;;;;;5088537;28;24426;-54
2021/07/10 03:18:23;;;;;;;5.55;5.15;;;;;;;;;;5105251;28;24421;-55
2021/07/10 03:20:48;;;;;;;6.10;5.60;;;;;;;;;;5102352;28;24474;-55
2021/07/10 03:23:13;;;;;;;5.88;5.47;;;;;;;;;;5084413;28;24416;-54
2021/07/10 03:25:38;;;;;;;5.90;5.50;;;;;;;;;;5092322;28;24506;-54
2021/07/10 03:28:04;;;;;;;5.23;4.83;;;;;;;;;;5089505;28;24418;-54
2021/07/10 03:30:29;;;;;;;4.70;4.40;;;;;;;;;;5104755;28;24443;-54
2021/07/10 03:32:54;;;;;;;4.80;4.50;;;;;;;;;;5085529;28;24859;-54
2021/07/10 03:35:20;;;;;;;5.53;5.03;;;;;;;;;;5095628;28;24402;-55
2021/07/10 03:37:46;;;;;;;5.20;4.80;;;;;;;;;;5083221;28;24417;-55
2021/07/10 03:40:12;;;;;;;5.35;4.95;;;;;;;;;;5088389;28;24518;-55
2021/07/10 03:42:38;;;;;;;5.70;5.20;;;;;;;;;;5079106;28;25029;-54
2021/07/10 03:45:06;;;;;;;5.82;5.40;;;;;;;;;;5090278;28;24503;-54
2021/07/10 03:47:32;;;;;;;5.25;4.85;;;;;;;;;;5081432;28;24477;-54
2021/07/10 03:49:57;;;;;;;6.23;5.63;;;;;;;;;;5074593;28;24469;-54
2021/07/10 03:52:22;;;;;;;6.43;5.70;;;;;;;;;;5088568;28;24479;-54
2021/07/10 03:54:47;;;;;;;6.03;5.63;;;;;;;;;;5100741;28;24406;-54
2021/07/10 03:57:12;;;;;;;5.38;4.97;;;;;;;;;;5079821;28;24409;-54
2021/07/10 03:59:37;;;;;;;6.10;5.60;;;;;;;;;;5094281;28;24438;-54
2021/07/10 04:02:03;;;;;;;5.50;5.10;;;;;;;;;;5091839;28;24421;-54
2021/07/10 04:04:28;;;;;;;4.65;4.35;;;;;;;;;;5102308;28;25027;-54
2021/07/10 04:06:53;;;;;;;5.90;5.50;;;;;;;;;;5081731;28;25023;-54
2021/07/10 04:09:18;;;;;;;5.10;4.70;;;;;;;;;;5092811;28;24548;-54
2021/07/10 04:11:43;;;;;;;4.90;4.50;;;;;;;;;;5099423;28;24428;-54
2021/07/10 04:14:09;;;;;;;4.87;4.47;;;;;;;;;;5080583;28;24589;-54
2021/07/10 04:16:34;;;;;;;4.72;4.43;;;;;;;;;;5096468;28;24487;-54
2021/07/10 04:18:59;;;;;;;4.77;4.37;;;;;;;;;;5090382;28;24505;-54
2021/07/10 04:21:24;;;;;;;4.10;3.80;;;;;;;;;;5067924;28;24415;-54
2021/07/10 04:23:49;;;;;;;4.50;4.20;;;;;;;;;;5071706;28;24417;-54
2021/07/10 04:26:14;;;;;;;3.83;3.63;;;;;;;;;;5088678;28;24414;-54
2021/07/10 04:28:39;;;;;;;3.20;3.00;;;;;;;;;;5097980;28;24943;-55
2021/07/10 04:31:05;;;;;;;3.30;3.10;;;;;;;;;;5098973;28;24451;-55
2021/07/10 04:33:30;;;;;;;3.20;3.00;;;;;;;;;;5092235;28;24414;-55
2021/07/10 04:35:55;;;;;;;3.00;2.80;;;;;;;;;;5096772;28;24451;-55
2021/07/10 04:38:20;;;;;;;2.53;2.33;;;;;;;;;;5084660;28;24462;-55
2021/07/10 04:40:46;;;;;;;3.00;2.80;;;;;;;;;;5086088;28;24419;-55
2021/07/10 04:43:11;;;;;;;3.00;2.80;;;;;;;;;;5068530;28;24836;-55
2021/07/10 04:45:37;;;;;;;3.90;3.60;;;;;;;;;;5080380;28;24440;-55
2021/07/10 04:48:02;;;;;;;3.40;3.20;;;;;;;;;;5094512;28;24422;-55
2021/07/10 04:50:27;;;;;;;2.60;2.50;;;;;;;;;;5080043;28;24780;-55
2021/07/10 04:52:52;;;;;;;4.00;3.70;;;;;;;;;;5085837;28;24418;-55
2021/07/10 04:55:18;;;;;;;3.80;3.60;;;;;;;;;;5073752;28;24499;-55
2021/07/10 04:57:43;;;;;;;2.80;2.60;;;;;;;;;;5094136;28;24954;-55
2021/07/10 05:00:09;;;;;;;3.20;2.80;;;;;;;;;;5071169;28;24448;-55
2021/07/10 05:02:34;;;;;;;3.30;3.00;;;;;;;;;;5086699;28;24433;-56
2021/07/10 05:05:00;;;;;;;3.00;2.80;;;;;;;;;;5089787;28;24880;-56
2021/07/10 05:07:25;;;;;;;3.20;2.90;;;;;;;;;;5096332;28;24426;-55
2021/07/10 05:09:51;;;;;;;2.90;2.70;;;;;;;;;;5084486;28;25039;-55
2021/07/10 05:12:20;;;;;;;2.80;2.60;;;;;;;;;;5086620;28;24811;-56
2021/07/10 05:14:45;;;;;;;3.27;3.07;;;;;;;;;;5079160;28;24406;-56
2021/07/10 05:17:10;;;;;;;3.10;2.90;;;;;;;;;;5087965;28;24918;-55
2021/07/10 05:19:35;;;;;;;3.40;3.20;;;;;;;;;;5098729;28;24486;-56
2021/07/10 05:22:01;;;;;;;3.47;3.20;;;;;;;;;;5107466;28;24545;-55
2021/07/10 05:24:26;;;;;;;2.97;2.78;;;;;;;;;;5072833;28;25030;-56
2021/07/10 05:26:51;;;;;;;3.67;3.37;;;;;;;;;;5067004;28;24418;-55
2021/07/10 05:29:16;;;;;;;3.20;3.00;;;;;;;;;;5066519;28;24449;-55
2021/07/10 05:31:41;;;;;;;3.73;3.53;;;;;;;;;;5066710;28;24933;-55
2021/07/10 05:34:07;;;;;;;3.90;3.60;;;;;;;;;;5078645;28;24509;-55
2021/07/10 05:36:32;;;;;;;4.70;4.30;;;;;;;;;;5094629;28;24773;-55
2021/07/10 05:38:57;;;;;;;3.70;3.50;;;;;;;;;;5101856;28;24414;-55
2021/07/10 05:41:22;;;;;;;3.60;3.30;;;;;;;;;;5086711;28;24387;-55
2021/07/10 05:43:47;;;;;;;3.38;3.10;;;;;;;;;;5086535;28;24986;-55
2021/07/10 05:46:13;;;;;;;3.40;3.20;;;;;;;;;;5089371;28;24402;-56
2021/07/10 05:48:38;;;;;;;3.70;3.50;;;;;;;;;;5103501;28;24409;-55
2021/07/10 05:51:03;;;;;;;3.70;3.50;;;;;;;;;;5100153;28;24989;-55
2021/07/10 05:53:28;;;;;;;4.37;4.07;;;;;;;;;;5081488;28;24411;-56
2021/07/10 05:55:54;;;;;;;4.30;4.00;;;;;;;;;;5100559;27;24824;-56
2021/07/10 05:58:19;;;;;;;4.13;3.83;;;;;;;;;;5078281;28;25034;-56
2021/07/10 06:00:44;;;;;;;3.90;3.60;;;;;;;;;;5088584;28;24422;-57
2021/07/10 06:03:09;;;;;;;4.15;3.85;;;;;;;;;;5103235;28;25167;-55
2021/07/10 06:05:36;;;;;;;4.00;3.70;;;;;;;;;;5097219;28;24497;-55
2021/07/10 06:08:02;;;;;;;3.67;3.37;;;;;;;;;;5094211;28;24395;-55
2021/07/10 06:10:27;;;;;;;3.50;3.30;;;;;;;;;;5085666;28;24468;-54
2021/07/10 06:12:52;;;;;;;4.10;3.80;;;;;;;;;;5102384;28;24420;-55
2021/07/10 06:15:17;;;;;;;4.47;4.18;;;;;;;;;;5091404;28;24421;-54
2021/07/10 06:17:43;;;;;;;3.63;3.33;;;;;;;;;;5092042;28;24423;-54
2021/07/10 06:20:10;;;;;;;5.30;3.70;;;;;;;;;;5089708;28;24414;-55
2021/07/10 06:22:35;;;;;;;3.60;3.30;;;;;;;;;;5095026;28;24499;-54
2021/07/10 06:25:00;;;;;;;4.17;3.87;;;;;;;;;;5077506;28;24871;-54
2021/07/10 06:27:26;;;;;;;4.30;4.00;;;;;;;;;;5078163;28;24425;-56
2021/07/10 06:29:51;;;;;;;4.37;4.07;;;;;;;;;;5067797;28;24441;-56
2021/07/10 06:32:16;;;;;;;4.90;4.50;;;;;;;;;;5084310;28;24417;-57
2021/07/10 06:34:41;;;;;;;4.20;3.90;;;;;;;;;;5074408;28;24442;-55
2021/07/10 06:37:06;;;;;;;5.93;4.10;;;;;;;;;;5069684;28;25047;-56
2021/07/10 06:39:32;;;;;;;4.77;4.37;;;;;;;;;;5083297;28;24426;-54
2021/07/10 06:41:57;;;;;;;4.82;4.43;;;;;;;;;;5069377;28;24472;-54
2021/07/10 06:44:22;;;;;;;4.60;4.20;;;;;;;;;;5070570;28;24427;-54
2021/07/10 06:46:48;;;;;;;4.73;4.43;;;;;;;;;;5088659;28;24769;-53
2021/07/10 06:49:13;;;;;;;4.35;4.05;;;;;;;;;;5087343;28;24753;-54
2021/07/10 06:51:38;;;;;;;4.47;4.18;;;;;;;;;;5068958;28;24498;-54
2021/07/10 06:54:03;;;;;;;5.33;4.93;;;;;;;;;;5069111;28;24383;-54
2021/07/10 06:56:28;;;;;;;4.60;4.20;;;;;;;;;;5077656;28;24403;-54
2021/07/10 06:58:53;;;;;;;4.40;4.10;;;;;;;;;;5069244;28;24425;-54
2021/07/10 07:01:19;;;;;;;4.55;4.25;;;;;;;;;;5068951;28;24828;-54
2021/07/10 07:03:44;;;;;;;4.80;4.40;;;;;;;;;;5068883;28;24769;-54
2021/07/10 07:06:09;;;;;;;4.90;4.60;;;;;;;;;;5079881;28;24406;-54
2021/07/10 07:08:34;;;;;;;4.90;4.50;;;;;;;;;;5068646;28;24505;-56
2021/07/10 07:10:59;;;;;;;4.45;4.05;;;;;;;;;;5068505;28;24662;-54
2021/07/10 07:13:24;;;;;;;5.20;4.38;;;;;;;;;;5068841;28;24418;-54
2021/07/10 07:15:49;;;;;;;4.10;3.80;;;;;;;;;;5069913;28;24813;-54
2021/07/10 07:18:15;;;;;;;4.30;4.00;;;;;;;;;;5068419;28;24456;-54
2021/07/10 07:20:41;;;;;;;4.70;4.40;;;;;;;;;;5068341;28;24422;-54
2021/07/10 07:23:06;;;;;;;4.00;3.70;;;;;;;;;;5079667;28;25049;-54
2021/07/10 07:25:31;;;;;;;4.60;4.30;;;;;;;;;;5079696;28;24573;-54
2021/07/10 07:27:57;;;;;;;4.40;4.10;;;;;;;;;;5071571;28;25011;-55
2021/07/10 07:30:22;;;;;;;5.10;4.70;;;;;;;;;;5088359;28;24455;-55
2021/07/10 07:32:47;;;;;;;5.00;4.60;;;;;;;;;;5081049;28;24432;-55
2021/07/10 07:35:13;;;;;;;4.87;4.57;;;;;;;;;;5086154;28;24407;-55
2021/07/10 07:37:39;;;;;;;3.90;3.70;;;;;;;;;;5084964;28;24571;-55
2021/07/10 07:40:05;;;;;;;4.77;4.47;;;;;;;;;;5078282;28;24494;-55
2021/07/10 07:42:30;;;;;;;4.80;4.40;;;;;;;;;;5067578;28;24387;-55
2021/07/10 07:44:55;;;;;;;4.80;4.40;;;;;;;;;;5067735;28;24853;-55
2021/07/10 07:47:20;;;;;;;5.13;4.80;;;;;;;;;;5069571;28;24418;-54
2021/07/10 07:49:46;;;;;;;4.97;4.57;;;;;;;;;;5067815;28;24442;-54
2021/07/10 07:52:12;;;;;;;4.10;3.80;;;;;;;;;;5067601;28;24449;-54
2021/07/10 07:54:37;;;;;;;4.73;4.43;;;;;;;;;;5070997;28;24502;-54
2021/07/10 07:57:02;;;;;;;4.60;4.20;;;;;;;;;;5077227;28;24411;-54
2021/07/10 07:59:28;;;;;;;5.00;4.60;;;;;;;;;;5079766;28;24411;-54
2021/07/10 08:01:53;;;;;;;5.30;4.80;;;;;;;;;;5083277;28;25013;-54
2021/07/10 08:04:18;;;;;;;5.00;4.60;;;;;;;;;;5087804;28;24410;-54
2021/07/10 08:06:43;;;;;;;4.50;4.10;;;;;;;;;;5088393;28;24933;-54
2021/07/10 08:09:09;;;;;;;5.20;4.80;;;;;;;;;;5081049;28;24855;-54
2021/07/10 08:11:35;;;;;;;4.18;3.88;;;;;;;;;;5067237;28;24399;-55
2021/07/10 08:14:00;;;;;;;4.50;4.20;;;;;;;;;;5067682;28;24406;-55
2021/07/10 08:16:25;;;;;;;3.90;3.70;;;;;;;;;;5067286;28;24465;-55
2021/07/10 08:18:52;;;;;;;5.03;4.73;;;;;;;;;;5067462;28;24391;-55
2021/07/10 08:21:17;;;;;;;4.65;4.35;;;;;;;;;;5086805;28;24940;-55
2021/07/10 08:23:42;;;;;;;4.60;4.30;;;;;;;;;;5071200;28;24437;-54
2021/07/10 08:26:07;;;;;;;4.33;4.03;;;;;;;;;;5067512;28;24972;-54
2021/07/10 08:28:33;;;;;;;4.03;3.80;;;;;;;;;;5066981;28;24406;-54
2021/07/10 08:30:58;;;;;;;4.50;4.20;;;;;;;;;;5067294;28;24430;-54
2021/07/10 08:33:23;;;;;;;4.63;4.38;;;;;;;;;;5075330;28;24502;-54
2021/07/10 08:35:49;;;;;;;4.50;4.20;;;;;;;;;;5087410;28;25151;-55
2021/07/10 08:38:14;;;;;;;4.67;4.37;;;;;;;;;;5087491;28;24425;-55
2021/07/10 08:40:39;;;;;;;4.40;4.10;;;;;;;;;;5087407;28;24390;-55
2021/07/10 08:43:04;;;;;;;4.47;4.18;;;;;;;;;;5083724;28;24518;-55
2021/07/10 08:45:30;;;;;;;4.70;4.30;;;;;;;;;;5067376;28;24406;-54
2021/07/10 08:47:56;;;;;;;5.00;4.60;;;;;;;;;;5067140;28;24387;-55
2021/07/10 08:50:21;;;;;;;5.28;4.88;;;;;;;;;;5066937;28;24555;-54
2021/07/10 08:52:47;;;;;;;5.00;4.70;;;;;;;;;;5067272;28;24394;-55
2021/07/10 08:55:12;;;;;;;5.30;4.90;;;;;;;;;;5067321;28;24498;-54
2021/07/10 08:57:38;;;;;;;4.63;4.27;;;;;;;;;;5066488;28;24391;-55
2021/07/10 09:00:07;;;;;;;4.30;4.03;;;;;;;;;;5067090;28;24429;-54
2021/07/10 09:02:33;;;;;;;4.18;3.92;;;;;;;;;;5066798;28;24418;-55
2021/07/10 09:04:59;;;;;;;4.03;3.83;;;;;;;;;;5077536;28;24414;-55
2021/07/10 09:07:24;;;;;;;4.00;3.70;;;;;;;;;;5087348;28;24448;-55
2021/07/10 09:09:50;;;;;;;4.45;4.15;;;;;;;;;;5086418;28;24848;-55
2021/07/10 09:12:26;;;;;;;4.20;3.90;;;;;;;;;;5086858;28;24393;-55
2021/07/10 09:14:51;;;;;;;4.38;4.07;;;;;;;;;;5084979;28;24502;-55
2021/07/10 09:17:17;;;;;;;4.32;3.92;;;;;;;;;;5086841;28;24425;-54
2021/07/10 09:19:43;;;;;;;4.70;4.30;;;;;;;;;;5088814;28;24761;-55
2021/07/10 09:22:08;;;;;;;3.60;3.40;;;;;;;;;;5091116;28;24881;-55
2021/07/10 09:24:34;;;;;;;5.30;4.90;;;;;;;;;;5090890;28;24487;-55
2021/07/10 09:27:04;;;;;;;4.32;4.03;;;;;;;;;;5080780;28;25109;-55
2021/07/10 09:29:29;;;;;;;4.57;4.30;;;;;;;;;;5080886;28;24534;-55
2021/07/10 09:31:59;;;;;;;4.00;3.80;;;;;;;;;;5090473;28;24844;-55
2021/07/10 09:34:32;;;;;;;4.90;4.60;;;;;;;;;;5089029;28;24535;-55
2021/07/10 09:36:59;;;;;;;4.20;3.90;;;;;;;;;;5091141;28;24435;-55
2021/07/10 09:39:29;;;;;;;4.90;4.60;;;;;;;;;;5090358;28;24489;-54
2021/07/10 09:41:54;;;;;;;4.68;4.38;;;;;;;;;;5090151;28;25050;-54
2021/07/10 09:44:20;;;;;;;4.60;4.30;;;;;;;;;;5082750;28;24407;-55
2021/07/10 09:46:45;;;;;;;4.60;4.30;;;;;;;;;;5086048;28;24863;-55
2021/07/10 09:49:30;;;;;;;5.00;4.60;;;;;;;;;;5085955;28;24442;-55
2021/07/10 09:52:10;;;;;;;4.60;4.20;;;;;;;;;;5080621;28;24484;-54
2021/07/10 09:54:37;;;;;;;5.00;4.70;;;;;;;;;;5083983;28;24413;-57
2021/07/10 09:57:07;;;;;;;4.10;3.80;;;;;;;;;;5110485;28;24756;-56
2021/07/10 09:59:36;;;;;;;5.13;4.72;;;;;;;;;;5091677;28;24505;-56
2021/07/10 10:02:07;;;;;;;6.50;6.00;;;;;;;;;;5089405;28;24404;-56
2021/07/10 10:04:33;;;;;;;5.30;4.90;;;;;;;;;;5089817;28;24433;-55
2021/07/10 10:06:59;;;;;;;6.10;5.60;;;;;;;;;;5081681;28;24434;-54
2021/07/10 10:09:26;;;;;;;5.72;5.22;;;;;;;;;;5069577;28;24418;-55
2021/07/10 10:11:51;;;;;;;5.70;5.30;;;;;;;;;;5069941;28;24808;-54
2021/07/10 10:14:17;;;;;;;5.87;5.37;;;;;;;;;;5069525;28;24937;-55
2021/07/10 10:16:46;;;;;;;5.53;5.03;;;;;;;;;;5069330;28;24548;-55
2021/07/10 10:19:18;;;;;;;5.00;4.60;;;;;;;;;;5068933;28;25257;-54
2021/07/10 10:21:44;;;;;;;4.90;4.60;;;;;;;;;;5075714;28;24433;-55
2021/07/10 10:24:10;;;;;;;4.38;4.07;;;;;;;;;;5084847;28;24406;-54
2021/07/10 10:26:35;;;;;;;4.77;4.47;;;;;;;;;;5086173;28;24434;-54
2021/07/10 10:29:01;;;;;;;4.70;4.40;;;;;;;;;;5078384;28;24427;-55
2021/07/10 10:31:26;;;;;;;5.00;4.70;;;;;;;;;;5077105;28;24490;-54
2021/07/10 10:33:52;;;;;;;5.03;4.73;;;;;;;;;;5089400;28;24441;-55
2021/07/10 10:36:19;;;;;;;5.78;4.60;;;;;;;;;;5080398;28;24808;-54
2021/07/10 10:38:45;;;;;;;4.20;3.90;;;;;;;;;;5067056;28;24402;-54
2021/07/10 10:41:10;;;;;;;4.35;4.05;;;;;;;;;;5068635;28;24441;-55
2021/07/10 10:43:35;;;;;;;5.20;4.80;;;;;;;;;;5067698;28;24475;-55
2021/07/10 10:46:14;;;;;;;5.20;4.80;;;;;;;;;;5068339;28;25116;-55
2021/07/10 10:48:40;;;;;;;4.57;4.28;;;;;;;;;;5085906;28;24432;-55
2021/07/10 10:51:25;;;;;;;4.68;4.38;;;;;;;;;;5088751;28;24476;-55
2021/07/10 10:53:51;;;;;;;4.60;4.40;;;;;;;;;;5086904;28;24379;-54
2021/07/10 10:56:38;;;;;;;4.50;4.20;;;;;;;;;;5088216;28;24459;-54
2021/07/10 10:59:22;;;;;;;5.50;5.00;;;;;;;;;;5088511;28;24444;-54
2021/07/10 11:01:47;;;;;;;4.50;4.10;;;;;;;;;;5088478;28;24811;-54
2021/07/10 11:04:12;;;;;;;4.38;4.07;;;;;;;;;;5083865;28;24554;-55
2021/07/10 11:06:38;;;;;;;4.55;4.25;;;;;;;;;;5071940;28;24402;-55
2021/07/10 11:09:03;;;;;;;3.90;3.70;;;;;;;;;;5070864;28;24395;-54
2021/07/10 11:11:35;;;;;;;4.57;4.27;;;;;;;;;;5088289;28;24398;-55
2021/07/10 11:14:10;;;;;;;4.53;4.22;;;;;;;;;;5088794;28;24467;-54
2021/07/10 11:16:36;;;;;;;4.40;4.10;;;;;;;;;;5080382;28;24477;-55
2021/07/10 11:19:03;;;;;;;4.35;4.10;;;;;;;;;;5069289;28;24890;-55
2021/07/10 11:21:31;;;;;;;4.50;4.20;;;;;;;;;;5071546;28;25003;-55
2021/07/10 11:24:15;;;;;;;5.10;4.70;;;;;;;;;;5072557;28;25008;-55
2021/07/10 11:26:40;;;;;;;4.60;4.30;;;;;;;;;;5063892;28;25076;-55
2021/07/10 11:29:16;;;;;;;4.37;4.07;;;;;;;;;;5064274;28;24487;-55
2021/07/10 11:31:41;;;;;;;4.18;3.90;;;;;;;;;;5090785;28;24409;-55
2021/07/10 11:34:08;;;;;;;5.22;4.88;;;;;;;;;;5080941;28;24418;-55
2021/07/10 11:36:48;;;;;;;4.60;4.30;;;;;;;;;;5064068;28;24417;-55
2021/07/10 11:39:22;;;;;;;4.10;3.80;;;;;;;;;;5064030;28;24757;-55
2021/07/10 11:41:47;;;;;;;4.07;3.80;;;;;;;;;;5063882;28;24414;-55
2021/07/10 11:44:14;;;;;;;4.40;4.00;;;;;;;;;;5064173;28;24426;-55
2021/07/10 11:46:59;;;;;;;4.45;4.07;;;;;;;;;;5062533;28;24395;-55
2021/07/10 11:49:36;;;;;;;4.50;4.30;;;;;;;;;;5085635;28;24466;-55
2021/07/10 11:52:07;;;;;;;4.53;4.22;;;;;;;;;;5087450;28;24423;-54
2021/07/10 11:54:33;;;;;;;5.20;4.80;;;;;;;;;;5072242;28;24411;-55
2021/07/10 11:56:58;;;;;;;4.68;4.38;;;;;;;;;;5064058;28;24471;-55
2021/07/10 11:59:23;;;;;;;5.47;5.07;;;;;;;;;;5080077;28;25455;-55
2021/07/10 12:01:48;;;;;;;4.57;4.27;;;;;;;;;;5085032;28;24406;-55
2021/07/10 12:04:14;;;;;;;4.50;4.30;;;;;;;;;;5080166;28;24445;-55
2021/07/10 12:06:39;;;;;;;5.50;5.10;;;;;;;;;;5100333;28;24863;-55
2021/07/10 12:09:04;;;;;;;5.47;5.17;;;;;;;;;;5091051;28;24820;-54
2021/07/10 12:11:29;;;;;;;6.20;5.70;;;;;;;;;;5085818;28;24415;-54
2021/07/10 12:14:03;;;;;;;5.70;5.30;;;;;;;;;;5071257;28;24514;-55
2021/07/10 12:16:28;;;;;;;5.60;5.20;;;;;;;;;;5063490;28;24537;-54
2021/07/10 12:18:53;;;;;;;5.70;5.30;;;;;;;;;;5064083;28;25067;-55
2021/07/10 12:21:20;;;;;;;5.20;4.90;;;;;;;;;;5099165;28;24487;-55
2021/07/10 12:23:56;;;;;;;5.80;5.40;;;;;;;;;;5091363;28;24998;-55
2021/07/10 12:26:23;;;;;;;4.55;4.25;;;;;;;;;;5060555;28;24402;-55
2021/07/10 12:28:50;;;;;;;5.32;4.93;;;;;;;;;;5077633;28;24998;-55
2021/07/10 12:31:25;;;;;;;5.30;5.00;;;;;;;;;;5084573;28;24429;-55
2021/07/10 12:33:52;;;;;;;5.65;5.25;;;;;;;;;;5084417;28;25193;-55
2021/07/10 12:36:19;;;;;;;5.38;5.07;;;;;;;;;;5084580;28;24489;-55
2021/07/10 12:38:50;;;;;;;5.07;4.78;;;;;;;;;;5077889;28;24407;-55
2021/07/10 12:41:23;;;;;;;5.15;4.85;;;;;;;;;;5064811;28;25327;-55
2021/07/10 12:43:48;;;;;;;5.00;4.70;;;;;;;;;;5071447;28;25195;-55
2021/07/10 12:46:14;;;;;;;5.90;5.50;;;;;;;;;;5089418;28;24429;-55
2021/07/10 12:48:39;;;;;;;6.33;5.90;;;;;;;;;;5080252;28;24409;-54
2021/07/10 12:51:04;;;;;;;5.73;5.33;;;;;;;;;;5086050;28;24780;-54
2021/07/10 12:53:32;;;;;;;4.73;4.40;;;;;;;;;;5086364;28;24386;-54
2021/07/10 12:56:23;;;;;;;5.68;5.22;;;;;;;;;;5085204;28;24433;-54
2021/07/10 12:58:48;;;;;;;6.00;5.60;;;;;;;;;;5076160;28;24460;-54
2021/07/10 13:01:19;;;;;;;6.20;5.70;;;;;;;;;;5105734;28;24414;-55
2021/07/10 13:03:48;;;;;;;6.10;5.65;;;;;;;;;;5100443;28;24972;-55
2021/07/10 13:06:13;;;;;;;5.50;5.20;;;;;;;;;;5100558;28;24410;-55
2021/07/10 13:08:48;;;;;;;6.07;5.60;;;;;;;;;;5082405;28;24552;-55
2021/07/10 13:11:14;;;;;;;5.40;5.00;;;;;;;;;;5090480;28;24422;-55
2021/07/10 13:13:40;;;;;;;5.90;5.50;;;;;;;;;;5100266;28;24514;-55
2021/07/10 13:16:10;;;;;;;5.95;5.55;;;;;;;;;;5087543;28;24430;-56
2021/07/10 13:18:49;;;;;;;5.13;4.72;;;;;;;;;;5089412;28;24437;-55
2021/07/10 13:21:17;;;;;;;5.00;4.70;;;;;;;;;;5093615;28;24487;-55
2021/07/10 13:23:43;;;;;;;5.75;5.35;;;;;;;;;;5105288;28;24410;-54
2021/07/10 13:26:41;;;;;;;5.10;4.80;;;;;;;;;;5094807;28;24422;-55
2021/07/10 13:29:06;;;;;;;4.82;4.53;;;;;;;;;;5048809;28;24508;-54
2021/07/10 13:31:31;;;;;;;4.75;4.45;;;;;;;;;;5076894;28;24760;-54
2021/07/10 13:34:08;;;;;;;5.60;5.20;;;;;;;;;;5089227;28;24568;-55
2021/07/10 13:36:37;;;;;;;5.50;5.20;;;;;;;;;;5087692;28;24425;-55
2021/07/10 13:39:06;;;;;;;5.30;5.00;;;;;;;;;;5076830;28;24419;-55
2021/07/10 13:41:33;;;;;;;5.03;4.63;;;;;;;;;;5071916;28;24415;-55
2021/07/10 13:44:12;;;;;;;5.50;5.10;;;;;;;;;;5074721;28;24689;-55
2021/07/10 13:46:39;;;;;;;5.22;4.93;;;;;;;;;;5081849;28;24422;-56
2021/07/10 13:49:16;;;;;;;5.70;5.30;;;;;;;;;;5087354;28;24410;-55
2021/07/10 13:51:46;;;;;;;5.20;4.90;;;;;;;;;;5076226;28;24492;-55
2021/07/10 13:54:22;;;;;;;4.80;4.50;;;;;;;;;;5071719;28;24505;-54
2021/07/10 13:57:05;;;;;;;5.00;4.70;;;;;;;;;;5085850;28;24987;-54
2021/07/10 13:59:31;;;;;;;5.40;4.90;;;;;;;;;;5068945;28;24415;-55
2021/07/10 14:01:56;;;;;;;5.40;5.00;;;;;;;;;;5066279;28;25005;-54
2021/07/10 14:04:21;;;;;;;5.45;5.05;;;;;;;;;;5071104;28;24418;-54
2021/07/10 14:06:46;;;;;;;5.20;4.90;;;;;;;;;;5082432;28;24433;-55
2021/07/10 14:09:11;;;;;;;4.80;4.50;;;;;;;;;;5083840;28;25030;-55
2021/07/10 14:11:36;;;;;;;4.87;4.47;;;;;;;;;;5078921;28;24434;-54
2021/07/10 14:14:01;;;;;;;5.30;4.90;;;;;;;;;;5077131;28;24440;-55
2021/07/10 14:16:26;;;;;;;5.40;5.00;;;;;;;;;;5081553;28;25003;-54
2021/07/10 14:18:52;;;;;;;4.20;3.90;;;;;;;;;;5069632;28;24383;-55
2021/07/10 14:21:17;;;;;;;4.30;4.00;;;;;;;;;;5073793;28;24423;-54
2021/07/10 14:23:42;;;;;;;4.90;4.60;;;;;;;;;;5080384;28;24849;-55
2021/07/10 14:26:09;;;;;;;4.70;4.40;;;;;;;;;;5089263;28;24417;-55
2021/07/10 14:28:34;;;;;;;4.90;4.60;;;;;;;;;;5087317;28;24984;-55
2021/07/10 14:30:59;;;;;;;4.40;4.00;;;;;;;;;;5089603;28;24453;-55
2021/07/10 14:33:24;;;;;;;4.30;4.10;;;;;;;;;;5087549;28;24433;-55
2021/07/10 14:35:50;;;;;;;4.70;4.40;;;;;;;;;;5089347;28;24462;-55
2021/07/10 14:38:15;;;;;;;4.95;4.65;;;;;;;;;;5089150;28;24936;-55
2021/07/10 14:40:40;;;;;;;5.20;4.90;;;;;;;;;;5089195;28;24494;-55